sensor_id;sensor_type;location;lat;lon;timestamp;pressure;altitude;pressure_sealevel;temperature;humidity
74552;BME280;63025;55.472;38.432;2024-01-07T00:01:12;100401.19;;;-16.85;100.00
74552;BME280;63025;55.472;38.432;2024-01-07T00:03:40;100421.72;;;-16.84;100.00
74552;BME280;63025;55.472;38.432;2024-01-07T00:06:09;100423.50;;;-16.87;100.00
74552;BME280;63025;55.472;38.432;2024-01-07T00:08:35;100426.09;;;-16.89;100.00
74552;BME280;63025;55.472;38.432;2024-01-07T00:11:01;100430.38;;;-16.88;100.00
74552;BME280;63025;55.472;38.432;2024-01-07T00:13:27;100426.16;;;-16.92;100.00
74552;BME280;63025;55.472;38.432;2024-01-07T00:15:53;100434.78;;;-16.94;100.00
74552;BME280;63025;55.472;38.432;2024-01-07T00:18:21;100426.31;;;-17.01;100.00
74552;BME280;63025;55.472;38.432;2024-01-07T00:20:47;100429.84;;;-17.05;100.00
74552;BME280;63025;55.472;38.432;2024-01-07T00:23:13;100434.09;;;-17.02;100.00
74552;BME280;63025;55.472;38.432;2024-01-07T00:25:39;100436.69;;;-17.05;100.00
74552;BME280;63025;55.472;38.432;2024-01-07T00:28:05;100446.16;;;-17.07;100.00
74552;BME280;63025;55.472;38.432;2024-01-07T00:30:31;100444.47;;;-17.08;100.00
74552;BME280;63025;55.472;38.432;2024-01-07T00:32:57;100442.75;;;-17.09;100.00
74552;BME280;63025;55.472;38.432;2024-01-07T00:35:23;100452.28;;;-17.15;100.00
74552;BME280;63025;55.472;38.432;2024-01-07T00:37:49;100451.50;;;-17.20;100.00
74552;BME280;63025;55.472;38.432;2024-01-07T00:40:15;100454.13;;;-17.23;100.00
74552;BME280;63025;55.472;38.432;2024-01-07T00:42:41;100460.16;;;-17.24;100.00
74552;BME280;63025;55.472;38.432;2024-01-07T00:45:08;100451.72;;;-17.33;100.00
74552;BME280;63025;55.472;38.432;2024-01-07T00:47:34;100455.97;;;-17.31;100.00
74552;BME280;63025;55.472;38.432;2024-01-07T00:50:00;100464.56;;;-17.33;100.00
74552;BME280;63025;55.472;38.432;2024-01-07T00:52:26;100470.66;;;-17.37;100.00
74552;BME280;63025;55.472;38.432;2024-01-07T00:54:51;100473.25;;;-17.40;100.00
74552;BME280;63025;55.472;38.432;2024-01-07T00:57:17;100482.66;;;-17.41;100.00
74552;BME280;63025;55.472;38.432;2024-01-07T00:59:43;100483.69;;;-17.51;100.00
74552;BME280;63025;55.472;38.432;2024-01-07T01:02:09;100497.34;;;-17.49;100.00
74552;BME280;63025;55.472;38.432;2024-01-07T01:04:38;100499.97;;;-17.52;100.00
74552;BME280;63025;55.472;38.432;2024-01-07T01:07:04;100504.22;;;-17.50;100.00
74552;BME280;63025;55.472;38.432;2024-01-07T01:09:30;100511.06;;;-17.50;100.00
74552;BME280;63025;55.472;38.432;2024-01-07T01:11:56;100511.91;;;-17.50;100.00
74552;BME280;63025;55.472;38.432;2024-01-07T01:14:22;100511.91;;;-17.50;100.00
74552;BME280;63025;55.472;38.432;2024-01-07T01:16:48;100523.03;;;-17.49;100.00
74552;BME280;63025;55.472;38.432;2024-01-07T01:19:13;100533.41;;;-17.57;100.00
74552;BME280;63025;55.472;38.432;2024-01-07T01:21:39;100527.44;;;-17.57;100.00
74552;BME280;63025;55.472;38.432;2024-01-07T01:24:05;100531.72;;;-17.58;100.00
74552;BME280;63025;55.472;38.432;2024-01-07T01:26:32;100542.84;;;-17.57;100.00
74552;BME280;63025;55.472;38.432;2024-01-07T01:28:58;100544.59;;;-17.61;100.00
74552;BME280;63025;55.472;38.432;2024-01-07T01:31:24;100542.94;;;-17.63;100.00
74552;BME280;63025;55.472;38.432;2024-01-07T01:33:50;100557.56;;;-17.68;100.00
74552;BME280;63025;55.472;38.432;2024-01-07T01:36:16;100557.56;;;-17.68;100.00
74552;BME280;63025;55.472;38.432;2024-01-07T01:38:42;100559.25;;;-17.67;100.00
74552;BME280;63025;55.472;38.432;2024-01-07T01:41:08;100561.00;;;-17.69;100.00
74552;BME280;63025;55.472;38.432;2024-01-07T01:43:34;100558.53;;;-17.75;100.00
74552;BME280;63025;55.472;38.432;2024-01-07T01:46:00;100567.97;;;-17.77;100.00
74552;BME280;63025;55.472;38.432;2024-01-07T01:48:26;100562.88;;;-17.82;100.00
74552;BME280;63025;55.472;38.432;2024-01-07T01:50:54;100564.69;;;-17.89;100.00
74552;BME280;63025;55.472;38.432;2024-01-07T01:53:25;100574.97;;;-17.90;100.00
74552;BME280;63025;55.472;38.432;2024-01-07T01:55:52;100573.28;;;-17.93;100.00
74552;BME280;63025;55.472;38.432;2024-01-07T01:58:20;100592.91;;;-17.90;100.00
74552;BME280;63025;55.472;38.432;2024-01-07T02:00:47;100595.59;;;-17.98;100.00
74552;BME280;63025;55.472;38.432;2024-01-07T02:03:13;100604.13;;;-17.99;100.00
74552;BME280;63025;55.472;38.432;2024-01-07T02:05:39;100596.50;;;-18.05;100.00
74552;BME280;63025;55.472;38.432;2024-01-07T02:08:06;100601.69;;;-18.08;100.00
74552;BME280;63025;55.472;38.432;2024-01-07T02:10:32;100605.13;;;-18.12;100.00
74552;BME280;63025;55.472;38.432;2024-01-07T02:13:05;100606.88;;;-18.15;100.00
74552;BME280;63025;55.472;38.432;2024-01-07T02:15:31;100615.41;;;-18.15;100.00
74552;BME280;63025;55.472;38.432;2024-01-07T02:17:57;100623.19;;;-18.18;100.00
74552;BME280;63025;55.472;38.432;2024-01-07T02:20:23;100624.91;;;-18.23;100.00
74552;BME280;63025;55.472;38.432;2024-01-07T02:22:50;100620.72;;;-18.30;100.00
74552;BME280;63025;55.472;38.432;2024-01-07T02:25:17;100627.50;;;-18.26;100.00
74552;BME280;63025;55.472;38.432;2024-01-07T02:27:44;100624.16;;;-18.30;100.00
74552;BME280;63025;55.472;38.432;2024-01-07T02:30:11;100623.31;;;-18.32;100.00
74552;BME280;63025;55.472;38.432;2024-01-07T02:32:37;100623.31;;;-18.32;100.00
74552;BME280;63025;55.472;38.432;2024-01-07T02:35:04;100623.34;;;-18.36;100.00
74552;BME280;63025;55.472;38.432;2024-01-07T02:37:31;100631.13;;;-18.45;100.00
74552;BME280;63025;55.472;38.432;2024-01-07T02:39:57;100637.09;;;-18.45;100.00
74552;BME280;63025;55.472;38.432;2024-01-07T02:42:23;100654.25;;;-18.48;100.00
74552;BME280;63025;55.472;38.432;2024-01-07T02:44:49;100654.28;;;-18.56;100.00
74552;BME280;63025;55.472;38.432;2024-01-07T02:47:15;100650.94;;;-18.58;100.00
74552;BME280;63025;55.472;38.432;2024-01-07T02:49:41;100662.94;;;-18.62;100.00
74552;BME280;63025;55.472;38.432;2024-01-07T02:52:07;100662.06;;;-18.60;100.00
74552;BME280;63025;55.472;38.432;2024-01-07T02:54:33;100673.94;;;-18.56;100.00
74552;BME280;63025;55.472;38.432;2024-01-07T02:56:59;100675.69;;;-18.57;100.00
74552;BME280;63025;55.472;38.432;2024-01-07T02:59:25;100682.56;;;-18.64;100.00
74552;BME280;63025;55.472;38.432;2024-01-07T03:01:50;100682.56;;;-18.64;100.00
74552;BME280;63025;55.472;38.432;2024-01-07T03:04:18;100675.81;;;-18.71;100.00
74552;BME280;63025;55.472;38.432;2024-01-07T03:06:43;100682.66;;;-18.73;100.00
74552;BME280;63025;55.472;38.432;2024-01-07T03:09:09;100679.25;;;-18.78;100.00
74552;BME280;63025;55.472;38.432;2024-01-07T03:11:42;100691.28;;;-18.83;100.00
74552;BME280;63025;55.472;38.432;2024-01-07T03:14:08;100692.97;;;-18.82;100.00
74552;BME280;63025;55.472;38.432;2024-01-07T03:16:33;100690.41;;;-18.82;100.00
74552;BME280;63025;55.472;38.432;2024-01-07T03:18:59;100682.81;;;-18.94;100.00
74552;BME280;63025;55.472;38.432;2024-01-07T03:21:27;100697.31;;;-18.90;100.00
74552;BME280;63025;55.472;38.432;2024-01-07T03:23:53;100700.69;;;-18.88;100.00
74552;BME280;63025;55.472;38.432;2024-01-07T03:26:20;100697.31;;;-18.90;100.00
74552;BME280;63025;55.472;38.432;2024-01-07T03:28:46;100699.88;;;-18.94;100.00
74552;BME280;63025;55.472;38.432;2024-01-07T03:31:18;100700.78;;;-19.02;100.00
74552;BME280;63025;55.472;38.432;2024-01-07T03:33:44;100705.91;;;-19.03;100.00
74552;BME280;63025;55.472;38.432;2024-01-07T03:36:12;100712.75;;;-19.04;100.00
74552;BME280;63025;55.472;38.432;2024-01-07T03:38:39;100723.00;;;-19.04;100.00
74552;BME280;63025;55.472;38.432;2024-01-07T03:41:05;100720.44;;;-19.02;100.00
74552;BME280;63025;55.472;38.432;2024-01-07T03:43:31;100735.00;;;-19.13;100.00
74552;BME280;63025;55.472;38.432;2024-01-07T03:45:57;100732.44;;;-19.12;100.00
74552;BME280;63025;55.472;38.432;2024-01-07T03:48:23;100727.31;;;-19.13;100.00
74552;BME280;63025;55.472;38.432;2024-01-07T03:50:49;100734.16;;;-19.12;100.00
74552;BME280;63025;55.472;38.432;2024-01-07T03:53:16;100732.44;;;-19.12;100.00
74552;BME280;63025;55.472;38.432;2024-01-07T03:55:42;100735.84;;;-19.16;100.00
74552;BME280;63025;55.472;38.432;2024-01-07T03:58:08;100741.88;;;-19.23;100.00
74552;BME280;63025;55.472;38.432;2024-01-07T04:00:34;100736.75;;;-19.26;100.00
74552;BME280;63025;55.472;38.432;2024-01-07T04:03:01;100749.56;;;-19.27;100.00
74552;BME280;63025;55.472;38.432;2024-01-07T04:05:27;100743.63;;;-19.32;100.00
74552;BME280;63025;55.472;38.432;2024-01-07T04:07:55;100746.19;;;-19.37;100.00
74552;BME280;63025;55.472;38.432;2024-01-07T04:10:21;100753.03;;;-19.41;100.00
74552;BME280;63025;55.472;38.432;2024-01-07T04:12:48;100744.53;;;-19.44;100.00
74552;BME280;63025;55.472;38.432;2024-01-07T04:15:14;100753.06;;;-19.47;100.00
74552;BME280;63025;55.472;38.432;2024-01-07T04:17:40;100760.81;;;-19.56;100.00
74552;BME280;63025;55.472;38.432;2024-01-07T04:20:07;100759.97;;;-19.67;100.00
74552;BME280;63025;55.472;38.432;2024-01-07T04:22:33;100771.88;;;-19.60;100.00
74552;BME280;63025;55.472;38.432;2024-01-07T04:24:59;100777.00;;;-19.54;100.00
74552;BME280;63025;55.472;38.432;2024-01-07T04:27:25;100777.84;;;-19.56;100.00
74552;BME280;63025;55.472;38.432;2024-01-07T04:29:51;100782.13;;;-19.60;100.00
74552;BME280;63025;55.472;38.432;2024-01-07T04:32:17;100800.88;;;-19.55;100.00
74552;BME280;63025;55.472;38.432;2024-01-07T04:34:43;100794.06;;;-19.60;100.00
74552;BME280;63025;55.472;38.432;2024-01-07T04:37:09;100795.78;;;-19.70;100.00
74552;BME280;63025;55.472;38.432;2024-01-07T04:39:35;100805.19;;;-19.73;100.00
74552;BME280;63025;55.472;38.432;2024-01-07T04:42:02;100806.03;;;-19.81;100.00
74552;BME280;63025;55.472;38.432;2024-01-07T04:44:28;100800.91;;;-19.82;100.00
74552;BME280;63025;55.472;38.432;2024-01-07T04:46:54;100806.88;;;-19.82;100.00
74552;BME280;63025;55.472;38.432;2024-01-07T04:49:20;100807.75;;;-19.90;100.00
74552;BME280;63025;55.472;38.432;2024-01-07T04:51:45;100817.16;;;-19.94;100.00
74552;BME280;63025;55.472;38.432;2024-01-07T04:54:11;100826.53;;;-19.94;100.00
74552;BME280;63025;55.472;38.432;2024-01-07T04:56:37;100837.59;;;-19.92;100.00
74552;BME280;63025;55.472;38.432;2024-01-07T04:59:03;100835.91;;;-19.95;100.00
74552;BME280;63025;55.472;38.432;2024-01-07T05:01:28;100841.00;;;-19.95;100.00
74552;BME280;63025;55.472;38.432;2024-01-07T05:03:54;100843.56;;;-19.96;100.00
74552;BME280;63025;55.472;38.432;2024-01-07T05:06:20;100844.41;;;-19.91;100.00
74552;BME280;63025;55.472;38.432;2024-01-07T05:08:46;100844.41;;;-19.82;100.00
74552;BME280;63025;55.472;38.432;2024-01-07T05:11:12;100856.34;;;-19.73;100.00
74552;BME280;63025;55.472;38.432;2024-01-07T05:13:38;100852.06;;;-19.64;100.00
74552;BME280;63025;55.472;38.432;2024-01-07T05:16:04;100853.72;;;-19.45;100.00
74552;BME280;63025;55.472;38.432;2024-01-07T05:18:30;100848.56;;;-19.32;100.00
74552;BME280;63025;55.472;38.432;2024-01-07T05:20:55;100854.50;;;-19.23;100.00
74552;BME280;63025;55.472;38.432;2024-01-07T05:23:21;100859.59;;;-19.17;100.00
74552;BME280;63025;55.472;38.432;2024-01-07T05:25:47;100857.03;;;-19.12;100.00
74552;BME280;63025;55.472;38.432;2024-01-07T05:28:13;100863.00;;;-19.12;100.00
74552;BME280;63025;55.472;38.432;2024-01-07T05:30:40;100859.59;;;-19.17;100.00
74552;BME280;63025;55.472;38.432;2024-01-07T05:33:06;100851.06;;;-19.17;100.00
74552;BME280;63025;55.472;38.432;2024-01-07T05:35:32;100865.56;;;-19.16;100.00
74552;BME280;63025;55.472;38.432;2024-01-07T05:37:58;100872.41;;;-19.12;100.00
74552;BME280;63025;55.472;38.432;2024-01-07T05:40:24;100867.28;;;-19.14;100.00
74552;BME280;63025;55.472;38.432;2024-01-07T05:42:50;100856.19;;;-19.16;100.00
74552;BME280;63025;55.472;38.432;2024-01-07T05:45:16;100875.81;;;-19.16;100.00
74552;BME280;63025;55.472;38.432;2024-01-07T05:47:41;100862.19;;;-19.21;100.00
74552;BME280;63025;55.472;38.432;2024-01-07T05:50:07;100883.53;;;-19.27;100.00
74552;BME280;63025;55.472;38.432;2024-01-07T05:52:34;100887.81;;;-19.40;100.00
74552;BME280;63025;55.472;38.432;2024-01-07T05:55:00;100898.06;;;-19.43;100.00
74552;BME280;63025;55.472;38.432;2024-01-07T05:57:26;100894.66;;;-19.45;100.00
74552;BME280;63025;55.472;38.432;2024-01-07T05:59:52;100907.50;;;-19.52;100.00
74552;BME280;63025;55.472;38.432;2024-01-07T06:02:18;100903.22;;;-19.55;100.00
74552;BME280;63025;55.472;38.432;2024-01-07T06:04:44;100916.00;;;-19.59;100.00
74552;BME280;63025;55.472;38.432;2024-01-07T06:07:10;100910.03;;;-19.70;100.00
74552;BME280;63025;55.472;38.432;2024-01-07T06:09:35;100918.59;;;-19.73;100.00
74552;BME280;63025;55.472;38.432;2024-01-07T06:12:02;100922.00;;;-19.77;100.00
74552;BME280;63025;55.472;38.432;2024-01-07T06:14:27;100929.66;;;-19.80;100.00
74552;BME280;63025;55.472;38.432;2024-01-07T06:16:54;100933.06;;;-19.86;100.00
74552;BME280;63025;55.472;38.432;2024-01-07T06:19:20;100941.59;;;-19.88;100.00
74552;BME280;63025;55.472;38.432;2024-01-07T06:21:46;100943.28;;;-19.98;100.00
74552;BME280;63025;55.472;38.432;2024-01-07T06:24:12;100952.66;;;-19.97;100.00
74552;BME280;63025;55.472;38.432;2024-01-07T06:26:38;100964.59;;;-19.94;100.00
74552;BME280;63025;55.472;38.432;2024-01-07T06:29:06;100968.88;;;-19.95;100.00
74552;BME280;63025;55.472;38.432;2024-01-07T06:31:32;100985.06;;;-19.94;100.00
74552;BME280;63025;55.472;38.432;2024-01-07T06:33:58;100982.47;;;-20.00;100.00
74552;BME280;63025;55.472;38.432;2024-01-07T06:36:25;100992.69;;;-19.99;100.00
74552;BME280;63025;55.472;38.432;2024-01-07T06:38:51;100985.03;;;-20.03;100.00
74552;BME280;63025;55.472;38.432;2024-01-07T06:41:16;100992.69;;;-19.99;100.00
74552;BME280;63025;55.472;38.432;2024-01-07T06:43:42;100995.25;;;-20.06;100.00
74552;BME280;63025;55.472;38.432;2024-01-07T06:46:09;101002.91;;;-20.11;100.00
74552;BME280;63025;55.472;38.432;2024-01-07T06:48:36;101010.56;;;-20.09;100.00
74552;BME280;63025;55.472;38.432;2024-01-07T06:51:01;101017.41;;;-19.99;100.00
74552;BME280;63025;55.472;38.432;2024-01-07T06:53:27;101020.81;;;-20.06;100.00
74552;BME280;63025;55.472;38.432;2024-01-07T06:55:53;101031.94;;;-19.94;100.00
74552;BME280;63025;55.472;38.432;2024-01-07T06:58:19;101041.38;;;-19.64;100.00
74552;BME280;63025;55.472;38.432;2024-01-07T07:00:45;101043.94;;;-19.35;100.00
74552;BME280;63025;55.472;38.432;2024-01-07T07:03:11;101045.66;;;-19.02;100.00
74552;BME280;63025;55.472;38.432;2024-01-07T07:05:37;101034.41;;;-18.43;100.00
74552;BME280;63025;55.472;38.432;2024-01-07T07:08:03;101033.28;;;-17.78;100.00
74552;BME280;63025;55.472;38.432;2024-01-07T07:10:29;101042.09;;;-17.00;100.00
74552;BME280;63025;55.472;38.432;2024-01-07T07:12:57;101046.50;;;-16.28;100.00
74552;BME280;63025;55.472;38.432;2024-01-07T07:15:23;101039.13;;;-15.87;100.00
74552;BME280;63025;55.472;38.432;2024-01-07T07:17:52;101049.38;;;-15.24;100.00
74552;BME280;63025;55.472;38.432;2024-01-07T07:20:18;101039.91;;;-14.70;100.00
74552;BME280;63025;55.472;38.432;2024-01-07T07:22:45;101046.59;;;-14.15;100.00
74552;BME280;63025;55.472;38.432;2024-01-07T07:25:11;101036.38;;;-13.80;100.00
74552;BME280;63025;55.472;38.432;2024-01-07T07:27:37;101029.34;;;-13.33;100.00
74552;BME280;63025;55.472;38.432;2024-01-07T07:30:04;101051.59;;;-12.92;95.77
74552;BME280;63025;55.472;38.432;2024-01-07T07:32:31;101049.94;;;-12.60;90.28
74552;BME280;63025;55.472;38.432;2024-01-07T07:34:56;101055.31;;;-12.68;83.08
74552;BME280;63025;55.472;38.432;2024-01-07T07:37:22;101061.06;;;-12.25;79.91
74552;BME280;63025;55.472;38.432;2024-01-07T07:39:48;101041.44;;;-11.73;76.86
74552;BME280;63025;55.472;38.432;2024-01-07T07:42:15;101060.34;;;-11.69;72.17
74552;BME280;63025;55.472;38.432;2024-01-07T07:44:41;101062.38;;;-11.77;68.11
74552;BME280;63025;55.472;38.432;2024-01-07T07:47:08;101067.56;;;-11.50;65.21
74552;BME280;63025;55.472;38.432;2024-01-07T07:49:37;101074.28;;;-10.88;63.51
74552;BME280;63025;55.472;38.432;2024-01-07T07:52:09;101072.56;;;-10.61;61.40
74552;BME280;63025;55.472;38.432;2024-01-07T07:54:37;101083.78;;;-10.34;58.85
74552;BME280;63025;55.472;38.432;2024-01-07T07:57:03;101083.19;;;-10.43;56.07
74552;BME280;63025;55.472;38.432;2024-01-07T07:59:29;101075.88;;;-10.31;54.60
74552;BME280;63025;55.472;38.432;2024-01-07T08:01:55;101086.69;;;-9.95;53.94
74552;BME280;63025;55.472;38.432;2024-01-07T08:04:21;101084.53;;;-9.59;52.26
74552;BME280;63025;55.472;38.432;2024-01-07T08:06:47;101096.00;;;-9.88;50.83
74552;BME280;63025;55.472;38.432;2024-01-07T08:09:13;101089.81;;;-10.34;49.08
74552;BME280;63025;55.472;38.432;2024-01-07T08:11:38;101099.94;;;-10.79;48.50
74552;BME280;63025;55.472;38.432;2024-01-07T08:14:04;101089.53;;;-10.26;48.50
74552;BME280;63025;55.472;38.432;2024-01-07T08:16:31;101079.34;;;-10.08;48.57
74552;BME280;63025;55.472;38.432;2024-01-07T08:18:57;101089.78;;;-10.32;48.11
74552;BME280;63025;55.472;38.432;2024-01-07T08:21:23;101096.88;;;-10.64;47.36
74552;BME280;63025;55.472;38.432;2024-01-07T08:23:50;101102.53;;;-11.05;47.48
74552;BME280;63025;55.472;38.432;2024-01-07T08:26:19;101102.31;;;-10.99;47.93
74552;BME280;63025;55.472;38.432;2024-01-07T08:28:45;101109.50;;;-11.07;47.86
74552;BME280;63025;55.472;38.432;2024-01-07T08:31:11;101109.22;;;-11.26;47.47
74552;BME280;63025;55.472;38.432;2024-01-07T08:33:37;101110.78;;;-11.79;47.10
74552;BME280;63025;55.472;38.432;2024-01-07T08:36:03;101112.88;;;-12.58;47.15
74552;BME280;63025;55.472;38.432;2024-01-07T08:38:30;101112.06;;;-13.33;47.05
74552;BME280;63025;55.472;38.432;2024-01-07T08:40:56;101120.44;;;-13.62;47.69
74552;BME280;63025;55.472;38.432;2024-01-07T08:43:22;101120.47;;;-13.23;48.46
74552;BME280;63025;55.472;38.432;2024-01-07T08:45:48;101117.19;;;-13.31;48.80
74552;BME280;63025;55.472;38.432;2024-01-07T08:48:14;101136.13;;;-13.71;49.00
74552;BME280;63025;55.472;38.432;2024-01-07T08:50:40;101139.72;;;-14.26;49.27
74552;BME280;63025;55.472;38.432;2024-01-07T08:53:06;101142.25;;;-14.23;49.92
74552;BME280;63025;55.472;38.432;2024-01-07T08:55:32;101144.88;;;-14.24;50.51
74552;BME280;63025;55.472;38.432;2024-01-07T08:57:57;101143.06;;;-14.70;50.82
74552;BME280;63025;55.472;38.432;2024-01-07T09:00:23;101155.66;;;-15.05;51.40
74552;BME280;63025;55.472;38.432;2024-01-07T09:02:52;101153.97;;;-15.08;52.60
74552;BME280;63025;55.472;38.432;2024-01-07T09:05:18;101154.28;;;-15.31;52.96
74552;BME280;63025;55.472;38.432;2024-01-07T09:07:44;101157.59;;;-15.88;53.08
74552;BME280;63025;55.472;38.432;2024-01-07T09:10:10;101164.72;;;-16.16;54.20
74552;BME280;63025;55.472;38.432;2024-01-07T09:12:39;101167.03;;;-15.89;56.33
74552;BME280;63025;55.472;38.432;2024-01-07T09:15:05;101163.13;;;-16.29;56.61
74552;BME280;63025;55.472;38.432;2024-01-07T09:17:36;101165.25;;;-15.85;58.17
74552;BME280;63025;55.472;38.432;2024-01-07T09:20:04;101149.28;;;-15.43;59.32
74552;BME280;63025;55.472;38.432;2024-01-07T09:22:33;101152.97;;;-14.98;60.18
74552;BME280;63025;55.472;38.432;2024-01-07T09:25:02;101163.03;;;-14.82;59.84
74552;BME280;63025;55.472;38.432;2024-01-07T09:27:31;101167.78;;;-15.13;59.65
74552;BME280;63025;55.472;38.432;2024-01-07T09:29:57;101173.31;;;-14.79;60.90
74552;BME280;63025;55.472;38.432;2024-01-07T09:32:23;101178.34;;;-15.32;60.05
74552;BME280;63025;55.472;38.432;2024-01-07T09:34:49;101173.13;;;-14.66;61.59
74552;BME280;63025;55.472;38.432;2024-01-07T09:37:16;101175.97;;;-13.84;62.35
74552;BME280;63025;55.472;38.432;2024-01-07T09:39:42;101167.78;;;-12.81;62.58
74552;BME280;63025;55.472;38.432;2024-01-07T09:42:13;101168.59;;;-12.44;61.11
74552;BME280;63025;55.472;38.432;2024-01-07T09:44:43;101156.75;;;-12.89;59.05
74552;BME280;63025;55.472;38.432;2024-01-07T09:47:15;101156.88;;;-13.32;57.89
74552;BME280;63025;55.472;38.432;2024-01-07T09:49:43;101158.03;;;-13.49;57.48
74552;BME280;63025;55.472;38.432;2024-01-07T09:52:11;101167.03;;;-13.66;57.48
74552;BME280;63025;55.472;38.432;2024-01-07T09:54:38;101163.56;;;-13.65;57.72
74552;BME280;63025;55.472;38.432;2024-01-07T09:57:05;101174.88;;;-14.19;57.49
74552;BME280;63025;55.472;38.432;2024-01-07T09:59:35;101157.81;;;-13.38;59.30
74552;BME280;63025;55.472;38.432;2024-01-07T10:02:03;101174.47;;;-12.03;60.65
74552;BME280;63025;55.472;38.432;2024-01-07T10:04:29;101170.78;;;-11.02;59.04
74552;BME280;63025;55.472;38.432;2024-01-07T10:06:58;101163.28;;;-10.83;56.69
74552;BME280;63025;55.472;38.432;2024-01-07T10:09:28;101154.75;;;-12.07;54.02
74552;BME280;63025;55.472;38.432;2024-01-07T10:11:54;101170.38;;;-12.12;54.35
74552;BME280;63025;55.472;38.432;2024-01-07T10:14:20;101165.16;;;-11.76;54.34
74552;BME280;63025;55.472;38.432;2024-01-07T10:16:54;101178.88;;;-12.05;53.91
74552;BME280;63025;55.472;38.432;2024-01-07T10:19:24;101181.56;;;-11.76;54.03
74552;BME280;63025;55.472;38.432;2024-01-07T10:22:03;101171.78;;;-11.37;54.32
74552;BME280;63025;55.472;38.432;2024-01-07T10:24:39;101177.16;;;-10.84;53.84
74552;BME280;63025;55.472;38.432;2024-01-07T10:27:08;101179.38;;;-10.72;53.56
74552;BME280;63025;55.472;38.432;2024-01-07T10:29:34;101185.28;;;-10.96;52.41
74552;BME280;63025;55.472;38.432;2024-01-07T10:32:00;101184.75;;;-11.07;51.67
74552;BME280;63025;55.472;38.432;2024-01-07T10:34:34;101181.22;;;-11.05;51.48
74552;BME280;63025;55.472;38.432;2024-01-07T10:37:02;101174.69;;;-10.61;50.96
74552;BME280;63025;55.472;38.432;2024-01-07T10:39:29;101183.78;;;-10.48;50.48
74552;BME280;63025;55.472;38.432;2024-01-07T10:41:56;101172.75;;;-10.03;50.38
74552;BME280;63025;55.472;38.432;2024-01-07T10:44:29;101172.81;;;-9.80;49.66
74552;BME280;63025;55.472;38.432;2024-01-07T10:46:56;101173.53;;;-10.26;48.76
74552;BME280;63025;55.472;38.432;2024-01-07T10:49:23;101165.25;;;-10.63;47.75
74552;BME280;63025;55.472;38.432;2024-01-07T10:52:04;101169.34;;;-10.84;47.89
74552;BME280;63025;55.472;38.432;2024-01-07T10:54:31;101188.50;;;-10.88;48.21
74552;BME280;63025;55.472;38.432;2024-01-07T10:57:46;101189.25;;;-10.57;48.32
74552;BME280;63025;55.472;38.432;2024-01-07T10:59:47;101185.22;;;-10.65;47.74
74552;BME280;63025;55.472;38.432;2024-01-07T11:02:13;101196.88;;;-11.37;47.06
74552;BME280;63025;55.472;38.432;2024-01-07T11:05:10;101199.81;;;-11.80;47.27
74552;BME280;63025;55.472;38.432;2024-01-07T11:08:01;101191.03;;;-11.15;47.91
74552;BME280;63025;55.472;38.432;2024-01-07T11:10:39;101200.25;;;-11.34;47.70
74552;BME280;63025;55.472;38.432;2024-01-07T11:13:07;101193.31;;;-11.97;47.69
74552;BME280;63025;55.472;38.432;2024-01-07T11:18:19;101196.88;;;-11.08;49.27
74552;BME280;63025;55.472;38.432;2024-01-07T11:20:46;101206.00;;;-11.55;48.19
74552;BME280;63025;55.472;38.432;2024-01-07T11:23:28;101212.66;;;-11.45;49.12
74552;BME280;63025;55.472;38.432;2024-01-07T11:25:59;101203.38;;;-10.93;48.54
74552;BME280;63025;55.472;38.432;2024-01-07T11:28:45;101206.53;;;-10.56;48.58
74552;BME280;63025;55.472;38.432;2024-01-07T11:31:13;101199.63;;;-11.13;47.77
74552;BME280;63025;55.472;38.432;2024-01-07T11:33:44;101200.56;;;-11.46;48.34
74552;BME280;63025;55.472;38.432;2024-01-07T11:36:12;101199.94;;;-11.54;48.51
74552;BME280;63025;55.472;38.432;2024-01-07T11:38:49;101209.50;;;-11.56;48.96
74552;BME280;63025;55.472;38.432;2024-01-07T11:41:16;101209.31;;;-10.90;48.54
74552;BME280;63025;55.472;38.432;2024-01-07T11:43:56;101206.81;;;-10.37;48.79
74552;BME280;63025;55.472;38.432;2024-01-07T11:46:28;101209.31;;;-10.34;48.45
74552;BME280;63025;55.472;38.432;2024-01-07T11:48:55;101204.75;;;-10.54;48.19
74552;BME280;63025;55.472;38.432;2024-01-07T11:51:31;101204.09;;;-10.32;48.64
74552;BME280;63025;55.472;38.432;2024-01-07T11:53:58;101206.03;;;-10.14;48.27
74552;BME280;63025;55.472;38.432;2024-01-07T11:56:25;101209.28;;;-10.32;47.47
74552;BME280;63025;55.472;38.432;2024-01-07T11:58:52;101224.03;;;-11.20;46.96
74552;BME280;63025;55.472;38.432;2024-01-07T12:01:18;101224.72;;;-11.75;47.29
74552;BME280;63025;55.472;38.432;2024-01-07T12:03:45;101221.91;;;-12.35;47.44
74552;BME280;63025;55.472;38.432;2024-01-07T12:06:12;101220.59;;;-12.91;47.83
74552;BME280;63025;55.472;38.432;2024-01-07T12:08:42;101227.97;;;-13.55;48.93
74552;BME280;63025;55.472;38.432;2024-01-07T12:11:08;101229.06;;;-13.68;50.24
74552;BME280;63025;55.472;38.432;2024-01-07T12:13:34;101225.38;;;-14.02;50.82
74552;BME280;63025;55.472;38.432;2024-01-07T12:16:01;101230.78;;;-14.18;51.89
74552;BME280;63025;55.472;38.432;2024-01-07T12:18:27;101227.84;;;-13.95;52.95
74552;BME280;63025;55.472;38.432;2024-01-07T12:20:56;101224.53;;;-14.03;53.69
74552;BME280;63025;55.472;38.432;2024-01-07T12:23:24;101218.81;;;-14.22;54.59
74552;BME280;63025;55.472;38.432;2024-01-07T12:25:51;101218.72;;;-14.16;55.24
74552;BME280;63025;55.472;38.432;2024-01-07T12:28:18;101227.22;;;-14.11;56.11